sensor_id;sensor_type;location;lat;lon;timestamp;P1;durP1;ratioP1;P2;durP2;ratioP2
75295;SDS011;64623;44.738;37.804;2023-06-22T00:00:22;7.15;;;4.60;;
75295;SDS011;64623;44.738;37.804;2023-06-22T00:01:25;4.80;;;4.30;;
75295;SDS011;64623;44.738;37.804;2023-06-22T00:02:28;7.15;;;5.03;;
75295;SDS011;64623;44.738;37.804;2023-06-22T00:03:31;5.93;;;4.78;;
75295;SDS011;64623;44.738;37.804;2023-06-22T00:04:34;7.63;;;4.43;;
75295;SDS011;64623;44.738;37.804;2023-06-22T00:05:37;5.35;;;4.78;;
75295;SDS011;64623;44.738;37.804;2023-06-22T00:06:40;7.00;;;4.65;;
75295;SDS011;64623;44.738;37.804;2023-06-22T00:07:43;8.52;;;4.53;;
75295;SDS011;64623;44.738;37.804;2023-06-22T00:08:46;5.95;;;4.68;;
75295;SDS011;64623;44.738;37.804;2023-06-22T00:09:49;6.63;;;5.13;;
75295;SDS011;64623;44.738;37.804;2023-06-22T00:10:52;7.40;;;5.30;;
75295;SDS011;64623;44.738;37.804;2023-06-22T00:11:55;6.22;;;5.03;;
75295;SDS011;64623;44.738;37.804;2023-06-22T00:12:58;6.35;;;4.53;;
75295;SDS011;64623;44.738;37.804;2023-06-22T00:14:02;6.30;;;5.65;;
75295;SDS011;64623;44.738;37.804;2023-06-22T00:15:05;6.32;;;4.82;;
75295;SDS011;64623;44.738;37.804;2023-06-22T00:16:08;7.72;;;4.85;;
75295;SDS011;64623;44.738;37.804;2023-06-22T00:17:11;5.32;;;4.32;;
75295;SDS011;64623;44.738;37.804;2023-06-22T00:18:14;7.13;;;4.72;;
75295;SDS011;64623;44.738;37.804;2023-06-22T00:19:18;7.93;;;5.05;;
75295;SDS011;64623;44.738;37.804;2023-06-22T00:20:22;6.38;;;4.75;;
75295;SDS011;64623;44.738;37.804;2023-06-22T00:21:25;6.25;;;4.65;;
75295;SDS011;64623;44.738;37.804;2023-06-22T00:22:29;9.70;;;5.18;;
75295;SDS011;64623;44.738;37.804;2023-06-22T00:23:32;7.53;;;4.53;;
75295;SDS011;64623;44.738;37.804;2023-06-22T00:24:36;7.18;;;4.80;;
75295;SDS011;64623;44.738;37.804;2023-06-22T00:25:40;8.77;;;4.95;;
75295;SDS011;64623;44.738;37.804;2023-06-22T00:26:43;5.38;;;4.88;;
75295;SDS011;64623;44.738;37.804;2023-06-22T00:27:47;8.63;;;5.15;;
75295;SDS011;64623;44.738;37.804;2023-06-22T00:28:50;6.10;;;4.75;;
75295;SDS011;64623;44.738;37.804;2023-06-22T00:29:54;7.90;;;5.07;;
75295;SDS011;64623;44.738;37.804;2023-06-22T00:30:57;6.13;;;4.75;;
75295;SDS011;64623;44.738;37.804;2023-06-22T00:32:00;6.10;;;4.85;;
75295;SDS011;64623;44.738;37.804;2023-06-22T00:33:03;8.57;;;5.75;;
75295;SDS011;64623;44.738;37.804;2023-06-22T00:34:10;6.30;;;5.22;;
75295;SDS011;64623;44.738;37.804;2023-06-22T00:35:13;8.00;;;4.85;;
75295;SDS011;64623;44.738;37.804;2023-06-22T00:36:16;8.68;;;5.25;;
75295;SDS011;64623;44.738;37.804;2023-06-22T00:37:20;6.85;;;5.30;;
75295;SDS011;64623;44.738;37.804;2023-06-22T00:38:28;6.07;;;5.22;;
75295;SDS011;64623;44.738;37.804;2023-06-22T00:39:31;7.72;;;5.32;;
75295;SDS011;64623;44.738;37.804;2023-06-22T00:40:35;8.15;;;4.97;;
75295;SDS011;64623;44.738;37.804;2023-06-22T00:41:38;7.95;;;5.68;;
75295;SDS011;64623;44.738;37.804;2023-06-22T00:42:41;6.93;;;5.60;;
75295;SDS011;64623;44.738;37.804;2023-06-22T00:43:44;8.82;;;5.55;;
75295;SDS011;64623;44.738;37.804;2023-06-22T00:44:48;6.43;;;4.93;;
75295;SDS011;64623;44.738;37.804;2023-06-22T00:45:51;7.55;;;5.20;;
75295;SDS011;64623;44.738;37.804;2023-06-22T00:46:55;7.35;;;5.53;;
75295;SDS011;64623;44.738;37.804;2023-06-22T00:47:58;7.82;;;5.78;;
75295;SDS011;64623;44.738;37.804;2023-06-22T00:49:01;5.75;;;5.15;;
75295;SDS011;64623;44.738;37.804;2023-06-22T00:50:07;8.65;;;5.13;;
75295;SDS011;64623;44.738;37.804;2023-06-22T00:51:12;9.43;;;5.38;;
75295;SDS011;64623;44.738;37.804;2023-06-22T00:52:15;8.75;;;5.82;;
75295;SDS011;64623;44.738;37.804;2023-06-22T00:53:24;6.30;;;5.40;;
75295;SDS011;64623;44.738;37.804;2023-06-22T00:54:29;7.90;;;5.00;;
75295;SDS011;64623;44.738;37.804;2023-06-22T00:55:32;9.13;;;5.45;;
75295;SDS011;64623;44.738;37.804;2023-06-22T00:56:38;8.60;;;6.35;;
75295;SDS011;64623;44.738;37.804;2023-06-22T00:57:42;7.28;;;5.30;;
75295;SDS011;64623;44.738;37.804;2023-06-22T00:58:46;9.35;;;6.20;;
75295;SDS011;64623;44.738;37.804;2023-06-22T00:59:51;10.35;;;5.43;;
75295;SDS011;64623;44.738;37.804;2023-06-22T01:00:54;6.55;;;4.70;;
75295;SDS011;64623;44.738;37.804;2023-06-22T01:01:57;7.28;;;5.22;;
75295;SDS011;64623;44.738;37.804;2023-06-22T01:03:01;6.93;;;6.22;;
75295;SDS011;64623;44.738;37.804;2023-06-22T01:04:04;7.35;;;5.68;;
75295;SDS011;64623;44.738;37.804;2023-06-22T01:05:08;8.07;;;5.57;;
75295;SDS011;64623;44.738;37.804;2023-06-22T01:06:13;7.03;;;5.30;;
75295;SDS011;64623;44.738;37.804;2023-06-22T01:08:38;6.68;;;5.63;;
75295;SDS011;64623;44.738;37.804;2023-06-22T01:11:34;8.55;;;5.70;;
75295;SDS011;64623;44.738;37.804;2023-06-22T01:12:45;8.68;;;6.60;;
75295;SDS011;64623;44.738;37.804;2023-06-22T01:14:12;8.15;;;5.50;;
75295;SDS011;64623;44.738;37.804;2023-06-22T01:15:43;6.85;;;5.72;;
75295;SDS011;64623;44.738;37.804;2023-06-22T01:17:10;8.50;;;5.90;;
75295;SDS011;64623;44.738;37.804;2023-06-22T01:18:18;7.85;;;6.47;;
75295;SDS011;64623;44.738;37.804;2023-06-22T01:20:44;7.18;;;6.10;;
75295;SDS011;64623;44.738;37.804;2023-06-22T01:21:48;7.60;;;5.35;;
75295;SDS011;64623;44.738;37.804;2023-06-22T01:25:20;8.80;;;5.65;;
75295;SDS011;64623;44.738;37.804;2023-06-22T01:29:10;7.95;;;5.95;;
75295;SDS011;64623;44.738;37.804;2023-06-22T01:30:16;8.52;;;6.07;;
75295;SDS011;64623;44.738;37.804;2023-06-22T01:31:25;7.68;;;5.43;;
75295;SDS011;64623;44.738;37.804;2023-06-22T01:32:33;6.82;;;5.63;;
75295;SDS011;64623;44.738;37.804;2023-06-22T01:33:39;7.43;;;5.32;;
75295;SDS011;64623;44.738;37.804;2023-06-22T01:34:45;8.52;;;6.22;;
75295;SDS011;64623;44.738;37.804;2023-06-22T01:35:50;7.78;;;6.03;;
75295;SDS011;64623;44.738;37.804;2023-06-22T01:36:53;8.25;;;5.63;;
75295;SDS011;64623;44.738;37.804;2023-06-22T01:37:56;7.20;;;5.97;;
75295;SDS011;64623;44.738;37.804;2023-06-22T01:39:00;8.77;;;6.13;;
75295;SDS011;64623;44.738;37.804;2023-06-22T01:40:06;7.32;;;6.57;;
75295;SDS011;64623;44.738;37.804;2023-06-22T01:41:11;7.82;;;6.05;;
75295;SDS011;64623;44.738;37.804;2023-06-22T01:42:15;10.32;;;6.35;;
75295;SDS011;64623;44.738;37.804;2023-06-22T01:43:19;7.35;;;6.10;;
75295;SDS011;64623;44.738;37.804;2023-06-22T01:44:25;9.13;;;6.50;;
75295;SDS011;64623;44.738;37.804;2023-06-22T01:45:29;8.13;;;6.10;;
75295;SDS011;64623;44.738;37.804;2023-06-22T01:46:35;9.70;;;6.60;;
75295;SDS011;64623;44.738;37.804;2023-06-22T01:47:39;9.40;;;6.65;;
75295;SDS011;64623;44.738;37.804;2023-06-22T01:48:44;10.30;;;5.78;;
75295;SDS011;64623;44.738;37.804;2023-06-22T01:49:47;10.25;;;5.80;;
75295;SDS011;64623;44.738;37.804;2023-06-22T01:50:51;7.72;;;6.15;;
75295;SDS011;64623;44.738;37.804;2023-06-22T01:51:55;7.53;;;5.88;;
75295;SDS011;64623;44.738;37.804;2023-06-22T01:52:58;8.15;;;6.70;;
75295;SDS011;64623;44.738;37.804;2023-06-22T01:54:02;8.13;;;6.18;;
75295;SDS011;64623;44.738;37.804;2023-06-22T01:55:05;10.32;;;6.70;;
75295;SDS011;64623;44.738;37.804;2023-06-22T01:56:10;7.50;;;6.38;;
75295;SDS011;64623;44.738;37.804;2023-06-22T01:57:13;9.23;;;6.25;;
75295;SDS011;64623;44.738;37.804;2023-06-22T01:58:16;11.45;;;6.30;;
75295;SDS011;64623;44.738;37.804;2023-06-22T01:59:26;8.30;;;5.88;;
75295;SDS011;64623;44.738;37.804;2023-06-22T02:00:37;9.77;;;6.78;;
75295;SDS011;64623;44.738;37.804;2023-06-22T02:01:43;8.88;;;6.75;;
75295;SDS011;64623;44.738;37.804;2023-06-22T02:04:03;8.80;;;6.78;;
75295;SDS011;64623;44.738;37.804;2023-06-22T02:05:11;8.48;;;6.40;;
75295;SDS011;64623;44.738;37.804;2023-06-22T02:06:23;8.35;;;7.03;;
75295;SDS011;64623;44.738;37.804;2023-06-22T02:07:31;10.30;;;6.47;;
75295;SDS011;64623;44.738;37.804;2023-06-22T02:08:55;8.20;;;6.50;;
75295;SDS011;64623;44.738;37.804;2023-06-22T02:10:02;8.70;;;6.38;;
75295;SDS011;64623;44.738;37.804;2023-06-22T02:11:09;9.27;;;6.38;;
75295;SDS011;64623;44.738;37.804;2023-06-22T02:12:16;8.98;;;6.30;;
75295;SDS011;64623;44.738;37.804;2023-06-22T02:13:24;9.23;;;6.60;;
75295;SDS011;64623;44.738;37.804;2023-06-22T02:14:27;8.88;;;6.90;;
75295;SDS011;64623;44.738;37.804;2023-06-22T02:15:32;9.10;;;6.65;;
75295;SDS011;64623;44.738;37.804;2023-06-22T02:16:36;8.20;;;7.03;;
75295;SDS011;64623;44.738;37.804;2023-06-22T02:17:40;9.70;;;7.32;;
75295;SDS011;64623;44.738;37.804;2023-06-22T02:18:48;11.57;;;6.57;;
75295;SDS011;64623;44.738;37.804;2023-06-22T02:19:55;8.70;;;6.60;;
75295;SDS011;64623;44.738;37.804;2023-06-22T02:20:58;9.05;;;6.80;;
75295;SDS011;64623;44.738;37.804;2023-06-22T02:22:01;9.35;;;6.53;;
75295;SDS011;64623;44.738;37.804;2023-06-22T02:23:05;8.40;;;6.97;;
75295;SDS011;64623;44.738;37.804;2023-06-22T02:24:10;9.23;;;6.85;;
75295;SDS011;64623;44.738;37.804;2023-06-22T02:25:13;9.25;;;6.85;;
75295;SDS011;64623;44.738;37.804;2023-06-22T02:26:17;9.30;;;7.30;;
75295;SDS011;64623;44.738;37.804;2023-06-22T02:27:20;10.35;;;7.40;;
75295;SDS011;64623;44.738;37.804;2023-06-22T02:28:23;10.60;;;6.70;;
75295;SDS011;64623;44.738;37.804;2023-06-22T02:29:27;11.32;;;7.10;;
75295;SDS011;64623;44.738;37.804;2023-06-22T02:30:31;9.25;;;6.78;;
75295;SDS011;64623;44.738;37.804;2023-06-22T02:31:34;9.95;;;7.45;;
75295;SDS011;64623;44.738;37.804;2023-06-22T02:32:37;9.35;;;7.00;;
75295;SDS011;64623;44.738;37.804;2023-06-22T02:33:44;9.85;;;7.00;;
75295;SDS011;64623;44.738;37.804;2023-06-22T02:34:48;11.68;;;6.15;;
75295;SDS011;64623;44.738;37.804;2023-06-22T02:35:51;9.55;;;6.57;;
75295;SDS011;64623;44.738;37.804;2023-06-22T02:36:56;8.88;;;6.53;;
75295;SDS011;64623;44.738;37.804;2023-06-22T02:38:04;9.10;;;6.30;;
75295;SDS011;64623;44.738;37.804;2023-06-22T02:39:07;8.77;;;6.45;;
75295;SDS011;64623;44.738;37.804;2023-06-22T02:40:11;8.15;;;6.15;;
75295;SDS011;64623;44.738;37.804;2023-06-22T02:41:15;9.65;;;6.45;;
75295;SDS011;64623;44.738;37.804;2023-06-22T02:42:23;9.73;;;6.72;;
75295;SDS011;64623;44.738;37.804;2023-06-22T02:43:26;8.65;;;6.55;;
75295;SDS011;64623;44.738;37.804;2023-06-22T02:44:29;9.30;;;6.80;;
75295;SDS011;64623;44.738;37.804;2023-06-22T02:45:32;8.43;;;6.28;;
75295;SDS011;64623;44.738;37.804;2023-06-22T02:46:35;9.02;;;7.07;;
75295;SDS011;64623;44.738;37.804;2023-06-22T02:47:39;9.00;;;7.68;;
75295;SDS011;64623;44.738;37.804;2023-06-22T02:48:43;9.38;;;6.38;;
75295;SDS011;64623;44.738;37.804;2023-06-22T02:49:47;9.65;;;6.82;;
75295;SDS011;64623;44.738;37.804;2023-06-22T02:50:51;10.13;;;6.55;;
75295;SDS011;64623;44.738;37.804;2023-06-22T02:51:54;10.40;;;6.63;;
75295;SDS011;64623;44.738;37.804;2023-06-22T02:52:57;10.25;;;6.32;;
75295;SDS011;64623;44.738;37.804;2023-06-22T02:54:03;7.72;;;6.00;;
75295;SDS011;64623;44.738;37.804;2023-06-22T02:55:06;10.15;;;6.65;;
75295;SDS011;64623;44.738;37.804;2023-06-22T02:56:12;7.85;;;7.05;;
75295;SDS011;64623;44.738;37.804;2023-06-22T02:57:15;11.40;;;6.43;;
75295;SDS011;64623;44.738;37.804;2023-06-22T02:58:19;9.77;;;6.65;;
75295;SDS011;64623;44.738;37.804;2023-06-22T02:59:22;9.00;;;6.38;;
75295;SDS011;64623;44.738;37.804;2023-06-22T03:00:32;11.45;;;7.63;;
75295;SDS011;64623;44.738;37.804;2023-06-22T03:01:35;9.57;;;6.80;;
75295;SDS011;64623;44.738;37.804;2023-06-22T03:02:51;9.93;;;6.97;;
75295;SDS011;64623;44.738;37.804;2023-06-22T03:03:54;10.82;;;7.18;;
75295;SDS011;64623;44.738;37.804;2023-06-22T03:04:57;9.27;;;6.75;;
75295;SDS011;64623;44.738;37.804;2023-06-22T03:06:00;9.63;;;6.45;;
75295;SDS011;64623;44.738;37.804;2023-06-22T03:07:04;9.60;;;7.47;;
75295;SDS011;64623;44.738;37.804;2023-06-22T03:08:08;10.68;;;6.95;;
75295;SDS011;64623;44.738;37.804;2023-06-22T03:09:11;10.90;;;7.07;;
75295;SDS011;64623;44.738;37.804;2023-06-22T03:10:14;8.90;;;6.40;;
75295;SDS011;64623;44.738;37.804;2023-06-22T03:11:18;10.70;;;6.57;;
75295;SDS011;64623;44.738;37.804;2023-06-22T03:12:21;8.40;;;6.85;;
75295;SDS011;64623;44.738;37.804;2023-06-22T03:13:27;8.63;;;7.05;;
75295;SDS011;64623;44.738;37.804;2023-06-22T03:14:30;7.85;;;5.90;;
75295;SDS011;64623;44.738;37.804;2023-06-22T03:15:34;10.23;;;7.05;;
75295;SDS011;64623;44.738;37.804;2023-06-22T03:16:37;9.90;;;6.95;;
75295;SDS011;64623;44.738;37.804;2023-06-22T03:17:40;10.13;;;7.10;;
75295;SDS011;64623;44.738;37.804;2023-06-22T03:18:44;10.60;;;7.97;;
75295;SDS011;64623;44.738;37.804;2023-06-22T03:19:47;10.63;;;7.22;;
75295;SDS011;64623;44.738;37.804;2023-06-22T03:20:51;9.90;;;6.55;;
75295;SDS011;64623;44.738;37.804;2023-06-22T03:21:54;12.63;;;6.93;;
75295;SDS011;64623;44.738;37.804;2023-06-22T03:22:57;9.63;;;6.40;;
75295;SDS011;64623;44.738;37.804;2023-06-22T03:24:00;9.30;;;6.68;;
75295;SDS011;64623;44.738;37.804;2023-06-22T03:25:03;11.70;;;6.70;;
75295;SDS011;64623;44.738;37.804;2023-06-22T03:26:08;11.40;;;6.55;;
75295;SDS011;64623;44.738;37.804;2023-06-22T03:27:12;8.23;;;6.55;;
75295;SDS011;64623;44.738;37.804;2023-06-22T03:28:15;12.43;;;7.18;;
75295;SDS011;64623;44.738;37.804;2023-06-22T03:29:18;9.35;;;6.53;;
75295;SDS011;64623;44.738;37.804;2023-06-22T03:30:22;9.82;;;6.93;;
75295;SDS011;64623;44.738;37.804;2023-06-22T03:31:25;10.85;;;6.32;;
75295;SDS011;64623;44.738;37.804;2023-06-22T03:32:28;11.05;;;6.97;;
75295;SDS011;64623;44.738;37.804;2023-06-22T03:33:33;10.32;;;7.18;;
75295;SDS011;64623;44.738;37.804;2023-06-22T03:34:36;10.23;;;6.35;;
75295;SDS011;64623;44.738;37.804;2023-06-22T03:35:39;9.90;;;6.22;;
75295;SDS011;64623;44.738;37.804;2023-06-22T03:36:42;10.93;;;6.63;;
75295;SDS011;64623;44.738;37.804;2023-06-22T03:37:47;8.90;;;6.85;;
75295;SDS011;64623;44.738;37.804;2023-06-22T03:38:51;9.10;;;6.38;;
75295;SDS011;64623;44.738;37.804;2023-06-22T03:39:54;10.52;;;6.60;;
75295;SDS011;64623;44.738;37.804;2023-06-22T03:40:58;8.52;;;7.32;;
75295;SDS011;64623;44.738;37.804;2023-06-22T03:42:01;8.27;;;6.47;;
75295;SDS011;64623;44.738;37.804;2023-06-22T03:43:04;7.78;;;6.45;;
75295;SDS011;64623;44.738;37.804;2023-06-22T03:44:07;8.80;;;6.10;;
75295;SDS011;64623;44.738;37.804;2023-06-22T03:45:14;7.78;;;6.40;;
75295;SDS011;64623;44.738;37.804;2023-06-22T03:46:17;8.15;;;6.57;;
75295;SDS011;64623;44.738;37.804;2023-06-22T03:47:22;9.85;;;7.43;;
75295;SDS011;64623;44.738;37.804;2023-06-22T03:48:25;7.78;;;6.72;;
75295;SDS011;64623;44.738;37.804;2023-06-22T03:49:28;7.47;;;6.65;;
75295;SDS011;64623;44.738;37.804;2023-06-22T03:50:34;8.45;;;6.28;;
75295;SDS011;64623;44.738;37.804;2023-06-22T03:51:37;10.43;;;6.93;;
75295;SDS011;64623;44.738;37.804;2023-06-22T03:52:41;8.48;;;6.38;;
75295;SDS011;64623;44.738;37.804;2023-06-22T03:53:44;11.38;;;7.00;;
75295;SDS011;64623;44.738;37.804;2023-06-22T03:54:47;9.32;;;6.65;;
75295;SDS011;64623;44.738;37.804;2023-06-22T03:55:51;6.80;;;5.85;;
75295;SDS011;64623;44.738;37.804;2023-06-22T03:56:56;8.95;;;7.07;;
75295;SDS011;64623;44.738;37.804;2023-06-22T03:58:00;8.27;;;6.40;;
75295;SDS011;64623;44.738;37.804;2023-06-22T03:59:08;8.52;;;6.47;;
75295;SDS011;64623;44.738;37.804;2023-06-22T04:00:11;9.20;;;6.93;;
75295;SDS011;64623;44.738;37.804;2023-06-22T04:01:15;9.90;;;7.45;;
75295;SDS011;64623;44.738;37.804;2023-06-22T04:02:19;9.85;;;6.68;;
75295;SDS011;64623;44.738;37.804;2023-06-22T04:03:22;8.18;;;6.85;;
75295;SDS011;64623;44.738;37.804;2023-06-22T04:04:25;10.75;;;7.28;;
75295;SDS011;64623;44.738;37.804;2023-06-22T04:05:28;8.35;;;7.35;;
75295;SDS011;64623;44.738;37.804;2023-06-22T04:06:31;9.30;;;7.43;;
75295;SDS011;64623;44.738;37.804;2023-06-22T04:07:35;8.48;;;7.40;;
75295;SDS011;64623;44.738;37.804;2023-06-22T04:08:42;8.82;;;6.82;;
75295;SDS011;64623;44.738;37.804;2023-06-22T04:09:45;8.75;;;7.00;;
75295;SDS011;64623;44.738;37.804;2023-06-22T04:10:48;7.53;;;6.63;;
75295;SDS011;64623;44.738;37.804;2023-06-22T04:11:52;8.60;;;6.45;;
75295;SDS011;64623;44.738;37.804;2023-06-22T04:12:55;9.00;;;7.03;;
75295;SDS011;64623;44.738;37.804;2023-06-22T04:13:58;9.45;;;7.28;;
75295;SDS011;64623;44.738;37.804;2023-06-22T04:15:01;8.60;;;6.53;;
75295;SDS011;64623;44.738;37.804;2023-06-22T04:16:05;7.03;;;5.97;;
75295;SDS011;64623;44.738;37.804;2023-06-22T04:17:08;11.25;;;6.50;;
75295;SDS011;64623;44.738;37.804;2023-06-22T04:18:11;9.55;;;7.07;;
75295;SDS011;64623;44.738;37.804;2023-06-22T04:19:15;10.20;;;6.75;;
75295;SDS011;64623;44.738;37.804;2023-06-22T04:20:20;7.70;;;6.90;;
75295;SDS011;64623;44.738;37.804;2023-06-22T04:21:25;8.07;;;6.32;;
75295;SDS011;64623;44.738;37.804;2023-06-22T04:22:28;8.68;;;7.25;;
75295;SDS011;64623;44.738;37.804;2023-06-22T04:23:31;7.13;;;6.43;;
75295;SDS011;64623;44.738;37.804;2023-06-22T04:24:34;9.32;;;6.82;;
75295;SDS011;64623;44.738;37.804;2023-06-22T04:25:37;9.32;;;6.22;;
75295;SDS011;64623;44.738;37.804;2023-06-22T04:26:40;10.48;;;6.22;;
75295;SDS011;64623;44.738;37.804;2023-06-22T04:27:48;10.85;;;6.57;;
75295;SDS011;64623;44.738;37.804;2023-06-22T04:28:51;11.10;;;6.53;;
75295;SDS011;64623;44.738;37.804;2023-06-22T04:29:57;10.82;;;6.60;;
75295;SDS011;64623;44.738;37.804;2023-06-22T04:31:03;8.15;;;6.80;;
75295;SDS011;64623;44.738;37.804;2023-06-22T04:32:07;7.97;;;5.80;;
75295;SDS011;64623;44.738;37.804;2023-06-22T04:33:10;8.45;;;5.82;;
75295;SDS011;64623;44.738;37.804;2023-06-22T04:34:13;8.90;;;6.13;;
75295;SDS011;64623;44.738;37.804;2023-06-22T04:35:18;6.82;;;5.57;;
75295;SDS011;64623;44.738;37.804;2023-06-22T04:36:21;8.00;;;6.13;;
75295;SDS011;64623;44.738;37.804;2023-06-22T04:37:27;9.68;;;5.50;;
75295;SDS011;64623;44.738;37.804;2023-06-22T04:38:30;10.07;;;7.40;;
75295;SDS011;64623;44.738;37.804;2023-06-22T04:39:35;6.85;;;5.93;;
75295;SDS011;64623;44.738;37.804;2023-06-22T04:40:39;12.82;;;7.30;;
75295;SDS011;64623;44.738;37.804;2023-06-22T04:41:42;8.20;;;6.45;;
75295;SDS011;64623;44.738;37.804;2023-06-22T04:42:45;7.88;;;5.57;;
75295;SDS011;64623;44.738;37.804;2023-06-22T04:43:55;7.95;;;6.05;;
75295;SDS011;64623;44.738;37.804;2023-06-22T04:45:02;9.93;;;7.43;;
75295;SDS011;64623;44.738;37.804;2023-06-22T04:46:06;7.07;;;5.97;;
75295;SDS011;64623;44.738;37.804;2023-06-22T04:47:09;9.60;;;6.63;;
75295;SDS011;64623;44.738;37.804;2023-06-22T04:48:12;9.48;;;6.65;;
75295;SDS011;64623;44.738;37.804;2023-06-22T04:49:18;10.63;;;6.10;;
75295;SDS011;64623;44.738;37.804;2023-06-22T04:50:22;9.05;;;6.18;;
75295;SDS011;64623;44.738;37.804;2023-06-22T04:51:26;11.00;;;6.60;;
75295;SDS011;64623;44.738;37.804;2023-06-22T04:52:33;8.95;;;6.22;;
75295;SDS011;64623;44.738;37.804;2023-06-22T04:53:36;10.13;;;5.80;;
75295;SDS011;64623;44.738;37.804;2023-06-22T04:54:40;6.93;;;6.22;;
75295;SDS011;64623;44.738;37.804;2023-06-22T04:55:50;9.45;;;6.55;;
75295;SDS011;64623;44.738;37.804;2023-06-22T04:56:55;7.20;;;5.80;;
75295;SDS011;64623;44.738;37.804;2023-06-22T04:58:01;8.77;;;5.75;;
75295;SDS011;64623;44.738;37.804;2023-06-22T04:59:07;8.70;;;5.60;;
75295;SDS011;64623;44.738;37.804;2023-06-22T05:00:13;7.15;;;5.65;;
75295;SDS011;64623;44.738;37.804;2023-06-22T05:01:21;8.13;;;6.00;;
75295;SDS011;64623;44.738;37.804;2023-06-22T05:02:25;11.68;;;6.47;;
75295;SDS011;64623;44.738;37.804;2023-06-22T05:03:30;8.07;;;5.90;;
75295;SDS011;64623;44.738;37.804;2023-06-22T05:04:33;9.48;;;6.75;;
75295;SDS011;64623;44.738;37.804;2023-06-22T05:05:38;7.45;;;5.88;;
75295;SDS011;64623;44.738;37.804;2023-06-22T05:06:41;7.40;;;5.93;;
75295;SDS011;64623;44.738;37.804;2023-06-22T05:07:47;9.20;;;6.45;;
75295;SDS011;64623;44.738;37.804;2023-06-22T05:08:55;8.93;;;6.82;;
75295;SDS011;64623;44.738;37.804;2023-06-22T05:10:02;7.63;;;5.45;;
75295;SDS011;64623;44.738;37.804;2023-06-22T05:11:06;8.70;;;6.53;;
75295;SDS011;64623;44.738;37.804;2023-06-22T05:12:09;9.88;;;6.15;;
75295;SDS011;64623;44.738;37.804;2023-06-22T05:13:14;8.52;;;7.63;;
75295;SDS011;64623;44.738;37.804;2023-06-22T05:14:17;6.20;;;5.15;;
75295;SDS011;64623;44.738;37.804;2023-06-22T05:15:21;10.38;;;6.38;;
75295;SDS011;64623;44.738;37.804;2023-06-22T05:16:29;6.82;;;5.95;;
75295;SDS011;64623;44.738;37.804;2023-06-22T05:17:32;7.95;;;6.10;;
75295;SDS011;64623;44.738;37.804;2023-06-22T05:18:35;7.18;;;5.57;;
75295;SDS011;64623;44.738;37.804;2023-06-22T05:19:39;10.38;;;6.70;;
75295;SDS011;64623;44.738;37.804;2023-06-22T05:20:50;8.43;;;5.90;;
75295;SDS011;64623;44.738;37.804;2023-06-22T05:21:54;7.70;;;6.18;;
75295;SDS011;64623;44.738;37.804;2023-06-22T05:22:57;8.88;;;5.78;;
75295;SDS011;64623;44.738;37.804;2023-06-22T05:24:01;9.90;;;5.93;;
75295;SDS011;64623;44.738;37.804;2023-06-22T05:25:08;6.53;;;5.68;;
75295;SDS011;64623;44.738;37.804;2023-06-22T05:26:12;8.15;;;5.75;;
75295;SDS011;64623;44.738;37.804;2023-06-22T05:27:15;7.68;;;5.50;;
75295;SDS011;64623;44.738;37.804;2023-06-22T05:28:18;7.38;;;5.40;;
75295;SDS011;64623;44.738;37.804;2023-06-22T05:29:25;9.27;;;6.07;;
75295;SDS011;64623;44.738;37.804;2023-06-22T05:30:29;6.28;;;5.68;;
75295;SDS011;64623;44.738;37.804;2023-06-22T05:31:33;5.90;;;5.07;;
75295;SDS011;64623;44.738;37.804;2023-06-22T05:32:37;7.95;;;6.15;;
75295;SDS011;64623;44.738;37.804;2023-06-22T05:33:41;7.78;;;6.18;;
75295;SDS011;64623;44.738;37.804;2023-06-22T05:34:45;7.43;;;5.47;;
75295;SDS011;64623;44.738;37.804;2023-06-22T05:35:48;7.70;;;5.35;;
75295;SDS011;64623;44.738;37.804;2023-06-22T05:36:51;7.57;;;5.57;;
75295;SDS011;64623;44.738;37.804;2023-06-22T05:37:54;7.00;;;5.47;;
75295;SDS011;64623;44.738;37.804;2023-06-22T05:38:57;8.63;;;5.80;;
75295;SDS011;64623;44.738;37.804;2023-06-22T05:40:00;7.63;;;5.57;;
75295;SDS011;64623;44.738;37.804;2023-06-22T05:41:04;7.00;;;5.93;;
75295;SDS011;64623;44.738;37.804;2023-06-22T05:42:08;6.35;;;4.90;;
75295;SDS011;64623;44.738;37.804;2023-06-22T05:43:12;6.30;;;5.35;;
75295;SDS011;64623;44.738;37.804;2023-06-22T05:44:15;7.55;;;5.35;;
75295;SDS011;64623;44.738;37.804;2023-06-22T05:45:18;9.55;;;5.72;;
75295;SDS011;64623;44.738;37.804;2023-06-22T05:46:21;7.18;;;5.97;;
75295;SDS011;64623;44.738;37.804;2023-06-22T05:47:24;9.23;;;5.55;;
75295;SDS011;64623;44.738;37.804;2023-06-22T05:48:27;9.55;;;6.40;;
75295;SDS011;64623;44.738;37.804;2023-06-22T05:49:30;8.35;;;5.95;;
75295;SDS011;64623;44.738;37.804;2023-06-22T05:50:36;6.65;;;5.25;;
75295;SDS011;64623;44.738;37.804;2023-06-22T05:51:40;7.68;;;4.72;;
75295;SDS011;64623;44.738;37.804;2023-06-22T05:52:44;8.35;;;6.18;;
75295;SDS011;64623;44.738;37.804;2023-06-22T05:53:47;7.00;;;5.53;;
75295;SDS011;64623;44.738;37.804;2023-06-22T05:54:52;10.55;;;5.63;;
75295;SDS011;64623;44.738;37.804;2023-06-22T05:55:55;6.65;;;5.53;;
75295;SDS011;64623;44.738;37.804;2023-06-22T05:56:58;6.05;;;5.03;;
75295;SDS011;64623;44.738;37.804;2023-06-22T05:58:01;7.20;;;5.75;;
75295;SDS011;64623;44.738;37.804;2023-06-22T05:59:05;10.43;;;6.10;;
75295;SDS011;64623;44.738;37.804;2023-06-22T06:00:08;9.75;;;6.03;;
75295;SDS011;64623;44.738;37.804;2023-06-22T06:01:13;9.60;;;5.43;;
75295;SDS011;64623;44.738;37.804;2023-06-22T06:02:18;11.15;;;6.40;;
75295;SDS011;64623;44.738;37.804;2023-06-22T06:03:21;10.00;;;5.50;;
75295;SDS011;64623;44.738;37.804;2023-06-22T06:04:25;5.72;;;4.97;;
75295;SDS011;64623;44.738;37.804;2023-06-22T06:05:29;8.23;;;6.25;;
75295;SDS011;64623;44.738;37.804;2023-06-22T06:06:34;6.15;;;5.10;;
75295;SDS011;64623;44.738;37.804;2023-06-22T06:07:39;6.57;;;5.82;;
75295;SDS011;64623;44.738;37.804;2023-06-22T06:08:43;9.48;;;6.40;;
75295;SDS011;64623;44.738;37.804;2023-06-22T06:09:46;7.95;;;6.18;;
75295;SDS011;64623;44.738;37.804;2023-06-22T06:10:50;9.65;;;6.32;;
75295;SDS011;64623;44.738;37.804;2023-06-22T06:11:55;6.93;;;6.22;;
75295;SDS011;64623;44.738;37.804;2023-06-22T06:12:58;6.20;;;5.50;;
75295;SDS011;64623;44.738;37.804;2023-06-22T06:14:04;7.72;;;5.47;;
75295;SDS011;64623;44.738;37.804;2023-06-22T06:15:08;6.40;;;5.68;;
75295;SDS011;64623;44.738;37.804;2023-06-22T06:16:12;8.63;;;5.53;;
75295;SDS011;64623;44.738;37.804;2023-06-22T06:17:15;8.18;;;5.15;;
75295;SDS011;64623;44.738;37.804;2023-06-22T06:18:18;6.97;;;5.75;;
75295;SDS011;64623;44.738;37.804;2023-06-22T06:19:21;7.57;;;6.18;;
75295;SDS011;64623;44.738;37.804;2023-06-22T06:20:25;7.65;;;5.40;;
75295;SDS011;64623;44.738;37.804;2023-06-22T06:21:30;6.97;;;6.38;;
75295;SDS011;64623;44.738;37.804;2023-06-22T06:22:33;7.80;;;5.55;;
75295;SDS011;64623;44.738;37.804;2023-06-22T06:23:36;8.43;;;6.05;;
75295;SDS011;64623;44.738;37.804;2023-06-22T06:24:39;7.22;;;5.35;;
75295;SDS011;64623;44.738;37.804;2023-06-22T06:25:42;7.93;;;5.72;;
75295;SDS011;64623;44.738;37.804;2023-06-22T06:26:45;6.13;;;5.47;;
75295;SDS011;64623;44.738;37.804;2023-06-22T06:27:50;6.25;;;5.63;;
75295;SDS011;64623;44.738;37.804;2023-06-22T06:28:54;6.78;;;5.95;;
75295;SDS011;64623;44.738;37.804;2023-06-22T06:29:58;10.38;;;5.90;;
75295;SDS011;64623;44.738;37.804;2023-06-22T06:31:01;8.27;;;5.80;;
75295;SDS011;64623;44.738;37.804;2023-06-22T06:32:05;11.05;;;6.20;;
75295;SDS011;64623;44.738;37.804;2023-06-22T06:33:08;6.60;;;5.60;;